createdAt,value
2023-01-27T00:10:19.835Z,-1.81
2023-01-27T00:13:23.607Z,-1.82
2023-01-27T00:15:56.086Z,-1.73
2023-01-27T00:18:38.995Z,-1.82
2023-01-27T00:27:32.576Z,-1.70
2023-01-27T00:39:45.955Z,-1.22
2023-01-27T00:42:30.922Z,-1.16
2023-01-27T00:45:27.584Z,-1.30
2023-01-27T00:47:59.313Z,-1.49
2023-01-27T00:50:42.179Z,-1.48
2023-01-27T00:56:18.880Z,-1.44
2023-01-27T00:58:49.232Z,-1.23
2023-01-27T01:01:27.432Z,-1.35
2023-01-27T01:04:08.705Z,-1.20
2023-01-27T01:06:58.418Z,-1.39
2023-01-27T01:09:30.271Z,-1.40
2023-01-27T01:12:05.824Z,-1.45
2023-01-27T01:14:40.082Z,-1.34
2023-01-27T01:17:08.834Z,-1.28
2023-01-27T01:19:42.143Z,-1.42
2023-01-27T01:22:12.439Z,-1.61
2023-01-27T01:24:51.621Z,-1.62
2023-01-27T01:27:21.546Z,-1.64
2023-01-27T01:32:36.625Z,-1.61
2023-01-27T01:35:09.301Z,-1.25
2023-01-27T01:37:43.428Z,-1.27
2023-01-27T01:40:14.887Z,-1.50
2023-01-27T01:43:03.500Z,-1.30
2023-01-27T01:45:37.803Z,-1.26
2023-01-27T01:48:37.538Z,-1.47
2023-01-27T01:51:26.628Z,-1.58
2023-01-27T01:54:32.301Z,-1.44
2023-01-27T01:57:15.821Z,-1.56
2023-01-27T02:00:07.969Z,-1.33
2023-01-27T02:02:41.659Z,-1.63
2023-01-27T02:05:31.655Z,-1.51
2023-01-27T02:08:06.510Z,-1.62
2023-01-27T02:10:38.023Z,-1.63
2023-01-27T02:13:09.852Z,-1.64
2023-01-27T02:15:41.223Z,-1.39
2023-01-27T02:18:25.171Z,-1.48
2023-01-27T02:20:59.184Z,-1.51
2023-01-27T02:24:13.048Z,-1.53
2023-01-27T02:26:49.515Z,-1.59
2023-01-27T02:29:20.056Z,-1.54
2023-01-27T02:31:59.665Z,-1.62
2023-01-27T02:34:37.130Z,-1.58
2023-01-27T02:37:12.361Z,-1.57
2023-01-27T02:39:50.272Z,-1.45
2023-01-27T02:42:26.054Z,-1.60
2023-01-27T02:44:55.595Z,-1.45
2023-01-27T02:47:25.324Z,-1.40
2023-01-27T02:49:57.352Z,-1.48
2023-01-27T02:52:31.739Z,-1.58
2023-01-27T02:55:17.732Z,-1.57
2023-01-27T03:00:58.952Z,-1.35
2023-01-27T03:03:35.541Z,-1.48
2023-01-27T03:06:23.016Z,-1.47
2023-01-27T03:09:00.850Z,-1.56
2023-01-27T03:11:54.109Z,-1.44
2023-01-27T03:14:54.803Z,-1.38
2023-01-27T03:17:46.693Z,-1.09
2023-01-27T03:26:17.081Z,-1.35
2023-01-27T03:38:15.988Z,-1.23
2023-01-27T03:44:43.677Z,-1.25
2023-01-27T03:47:13.210Z,-1.19
2023-01-27T03:49:59.401Z,-1.09
2023-01-27T03:52:36.576Z,-0.96
2023-01-27T03:55:22.031Z,-1.09
2023-01-27T03:57:56.151Z,-1.16
2023-01-27T04:00:46.761Z,-1.08
2023-01-27T04:03:39.231Z,-0.82
2023-01-27T04:06:47.788Z,-1.02
2023-01-27T04:09:43.441Z,-0.98
2023-01-27T04:16:33.016Z,-0.74
2023-01-27T04:19:08.090Z,-0.82
2023-01-27T04:21:51.959Z,-1.02
2023-01-27T04:24:24.927Z,-0.84
2023-01-27T04:27:21.332Z,-0.85
2023-01-27T04:29:53.114Z,-0.86
2023-01-27T04:32:24.678Z,-0.79
2023-01-27T04:35:27.871Z,-0.83
2023-01-27T04:38:08.666Z,-0.88
2023-01-27T04:40:38.821Z,-0.87
2023-01-27T04:43:14.735Z,-0.85
2023-01-27T04:45:44.563Z,-0.76
2023-01-27T04:48:22.509Z,-0.60
2023-01-27T04:59:59.325Z,-0.55
2023-01-27T05:02:31.601Z,-0.48
2023-01-27T05:05:12.607Z,-0.55
2023-01-27T05:10:31.663Z,-0.56
2023-01-27T05:28:48.619Z,-0.56
2023-01-27T05:31:41.831Z,-0.53
2023-01-27T05:37:20.564Z,-0.37
2023-01-27T05:39:54.684Z,-0.36
2023-01-27T05:42:26.240Z,-0.21
2023-01-27T06:15:46.832Z,0.02
2023-01-27T10:38:05.500Z,6.45
2023-01-27T10:41:10.679Z,6.38
2023-01-27T10:44:11.527Z,6.45
2023-01-27T10:47:20.007Z,6.81
2023-01-27T10:49:54.083Z,6.88
2023-01-27T10:52:52.769Z,7.15
2023-01-27T10:55:37.266Z,7.49
2023-01-27T10:58:28.656Z,7.26
2023-01-27T11:01:19.687Z,7.18
2023-01-27T11:04:16.722Z,7.17
2023-01-27T11:06:50.359Z,7.61
2023-01-27T11:09:51.110Z,7.64
2023-01-27T11:12:29.668Z,7.81
2023-01-27T11:15:01.430Z,7.71
2023-01-27T11:17:46.876Z,7.89
2023-01-27T11:20:37.438Z,7.83
2023-01-27T11:23:27.775Z,8.59
2023-01-27T11:26:17.335Z,8.12
2023-01-27T11:29:21.974Z,8.25
2023-01-27T11:32:27.536Z,8.36
2023-01-27T11:35:17.577Z,8.51
2023-01-27T11:38:14.482Z,8.44
2023-01-27T11:40:47.501Z,8.42
2023-01-27T11:43:26.591Z,8.72
2023-01-27T11:46:05.199Z,8.80
2023-01-27T11:48:43.325Z,8.13
2023-01-27T11:51:27.116Z,8.56
2023-01-27T11:54:09.846Z,8.45
2023-01-27T11:56:43.271Z,8.21
2023-01-27T11:59:20.489Z,8.01
2023-01-27T12:02:00.023Z,8.08
2023-01-27T12:04:56.750Z,7.67
2023-01-27T12:07:44.313Z,7.66
2023-01-27T12:10:38.173Z,7.86
2023-01-27T12:13:22.130Z,7.79
2023-01-27T12:16:02.528Z,7.68
2023-01-27T12:18:37.899Z,7.75
2023-01-27T12:21:09.779Z,7.86
2023-01-27T12:23:54.381Z,7.80
2023-01-27T12:26:45.278Z,7.94
2023-01-27T12:29:20.772Z,7.84
2023-01-27T12:31:53.269Z,7.67
2023-01-27T12:34:27.824Z,7.88
2023-01-27T12:37:00.135Z,7.43
2023-01-27T12:39:40.650Z,7.48
2023-01-27T12:42:39.068Z,7.20
2023-01-27T12:45:31.334Z,7.04
2023-01-27T12:48:21.083Z,7.08
2023-01-27T12:51:03.893Z,7.20
2023-01-27T12:53:33.899Z,7.19
2023-01-27T12:56:24.816Z,7.16
2023-01-27T12:59:01.141Z,7.29
2023-01-27T13:01:35.562Z,7.00
2023-01-27T13:04:27.281Z,6.71
2023-01-27T13:07:05.771Z,6.67
2023-01-27T13:10:07.476Z,6.72
2023-01-27T13:12:47.972Z,6.79
2023-01-27T13:18:25.792Z,6.55
2023-01-27T13:21:12.133Z,6.38
2023-01-27T13:23:56.259Z,6.35
2023-01-27T13:26:38.130Z,6.27
2023-01-27T13:29:09.751Z,6.42
2023-01-27T13:32:24.292Z,5.96
2023-01-27T13:35:26.304Z,5.80
2023-01-27T13:38:24.520Z,5.78
2023-01-27T13:40:53.081Z,5.75
2023-01-27T13:43:42.681Z,5.62
2023-01-27T13:46:17.330Z,5.57
2023-01-27T13:48:56.367Z,5.48
2023-01-27T13:51:30.476Z,5.42
2023-01-27T13:54:02.580Z,5.30
2023-01-27T13:56:42.776Z,5.17
2023-01-27T13:59:41.996Z,5.29
2023-01-27T14:02:45.513Z,5.08
2023-01-27T14:05:50.907Z,4.93
2023-01-27T14:08:54.760Z,4.85
2023-01-27T14:11:38.397Z,4.61
2023-01-27T14:14:28.191Z,4.54
2023-01-27T14:17:29.550Z,4.56
2023-01-27T14:20:14.701Z,4.66
2023-01-27T18:40:25.605Z,1.95
2023-01-27T18:42:55.821Z,1.96
2023-01-27T18:45:25.684Z,1.93
2023-01-27T18:48:03.620Z,1.76
2023-01-27T18:50:40.413Z,1.69
2023-01-27T18:53:18.963Z,1.67
2023-01-27T18:55:47.673Z,1.49
2023-01-27T18:58:18.275Z,1.48
2023-01-27T19:03:45.997Z,1.40
2023-01-27T19:06:21.489Z,1.32
2023-01-27T19:08:52.860Z,1.26
2023-01-27T19:11:21.724Z,1.41
2023-01-27T19:13:51.089Z,1.35
2023-01-27T19:16:21.558Z,1.34
2023-01-27T19:18:53.771Z,1.31
2023-01-27T19:21:24.191Z,1.22
2023-01-27T19:23:53.751Z,1.25
2023-01-27T19:26:25.417Z,1.27
2023-01-27T19:28:57.868Z,1.10
2023-01-27T19:34:20.687Z,1.04
2023-01-27T19:36:50.779Z,1.03
2023-01-27T19:39:32.155Z,1.04
2023-01-27T19:44:43.484Z,0.83
2023-01-27T19:47:14.561Z,0.70
2023-01-27T19:49:45.880Z,0.92
2023-01-27T19:52:16.278Z,0.81
2023-01-27T19:54:47.019Z,0.96
2023-01-27T19:57:18.050Z,0.85
2023-01-27T19:59:54.502Z,0.82
2023-01-27T20:02:24.613Z,0.74
2023-01-27T20:04:56.185Z,0.70
2023-01-27T20:07:25.051Z,0.73
2023-01-27T20:09:56.245Z,0.66
2023-01-27T20:12:24.703Z,0.74
2023-01-27T20:14:53.589Z,0.61
2023-01-27T20:17:22.415Z,0.53
2023-01-27T20:19:51.370Z,0.59
2023-01-27T20:22:21.281Z,0.56
2023-01-27T20:24:50.865Z,0.45
2023-01-27T20:27:20.357Z,0.49
2023-01-27T20:29:48.569Z,0.51
2023-01-27T20:32:22.760Z,0.45
2023-01-27T20:34:54.938Z,0.41
2023-01-27T20:37:23.589Z,0.41
2023-01-27T20:39:55.611Z,0.52
2023-01-27T20:42:25.324Z,0.41
2023-01-27T20:44:54.950Z,0.43
2023-01-27T20:47:25.166Z,0.33
2023-01-27T20:49:57.310Z,0.33
2023-01-27T20:52:27.143Z,0.43
2023-01-27T20:54:57.881Z,0.36
2023-01-27T20:57:40.856Z,0.30
2023-01-27T21:00:17.214Z,0.20
2023-01-27T21:02:46.243Z,0.20
2023-01-27T21:05:16.560Z,0.19
2023-01-27T21:07:48.489Z,0.34
2023-01-27T21:10:19.389Z,0.24
2023-01-27T21:13:07.551Z,0.18
2023-01-27T21:15:37.079Z,0.19
2023-01-27T21:18:06.818Z,0.22
2023-01-27T21:20:35.931Z,0.32
2023-01-27T21:23:06.190Z,0.26
2023-01-27T21:25:36.941Z,0.19
2023-01-27T21:28:06.694Z,0.14
2023-01-27T21:30:35.619Z,0.18
2023-01-27T21:33:05.552Z,0.22
2023-01-27T21:35:37.479Z,0.14
2023-01-27T21:38:08.030Z,0.18
2023-01-27T21:40:44.166Z,0.11
2023-01-27T21:43:37.530Z,0.13
2023-01-27T21:46:15.542Z,0.00
2023-01-27T21:48:44.890Z,-0.01
2023-01-27T21:51:14.894Z,0.14
2023-01-27T21:53:55.807Z,0.04
2023-01-27T21:56:26.539Z,0.11
2023-01-27T21:58:55.193Z,0.05
2023-01-27T22:01:24.656Z,0.15
2023-01-27T22:03:57.881Z,0.10
2023-01-27T22:06:33.267Z,0.22
2023-01-27T22:09:02.547Z,0.28
2023-01-27T22:11:32.803Z,0.27
2023-01-27T22:14:02.028Z,0.17
2023-01-27T22:16:34.396Z,0.06
2023-01-27T22:19:24.055Z,-0.01
2023-01-27T22:21:56.524Z,0.16
2023-01-27T22:24:33.191Z,0.18
2023-01-27T22:27:02.671Z,0.12
2023-01-27T22:29:46.134Z,-0.11
2023-01-27T22:32:37.286Z,-0.06
2023-01-27T22:35:08.471Z,0.01
2023-01-27T22:37:40.333Z,-0.03
2023-01-27T22:40:11.347Z,0.10
2023-01-27T22:42:42.441Z,0.11
2023-01-27T22:45:21.529Z,0.05
2023-01-27T22:47:52.673Z,0.06
2023-01-27T22:50:31.351Z,-0.05
2023-01-27T22:53:03.730Z,-0.08
2023-01-27T22:55:33.047Z,-0.08
2023-01-27T22:58:02.270Z,-0.12
2023-01-27T23:00:33.862Z,-0.03
2023-01-27T23:03:04.231Z,0.01
2023-01-27T23:05:35.596Z,0.07
2023-01-27T23:08:10.404Z,-0.01
2023-01-27T23:10:41.306Z,0.05
2023-01-27T23:13:12.320Z,-0.02
2023-01-27T23:15:40.270Z,-0.11
2023-01-27T23:18:12.586Z,-0.03
2023-01-27T23:20:43.380Z,-0.09
2023-01-27T23:23:16.076Z,-0.02
2023-01-27T23:25:46.022Z,-0.02
2023-01-27T23:28:19.841Z,-0.06
2023-01-27T23:30:50.182Z,-0.08
2023-01-27T23:33:20.359Z,-0.20
2023-01-27T23:35:49.153Z,-0.34
2023-01-27T23:38:31.705Z,-0.28
2023-01-27T23:41:08.972Z,-0.33
2023-01-27T23:43:39.036Z,-0.26
2023-01-27T23:46:08.084Z,-0.36
2023-01-27T23:48:38.945Z,-0.48
2023-01-27T23:51:10.494Z,-0.56
2023-01-27T23:53:42.473Z,-0.41
2023-01-27T23:56:20.484Z,-0.47
2023-01-27T23:58:50.019Z,-0.63
